Time;durP1;ratioP1;P1;durP2;ratioP2;P2;SDS_P1;SDS_P2;PMS_P1;PMS_P2;Temp;Humidity;BMP_temperature;BMP_pressure;BME280_temperature;BME280_humidity;BME280_pressure;Samples;Min_cycle;Max_cycle;Signal;HPM_P1;HPM_P2
2022/06/27 00:00:15;;;;;;;12.63;11.35;;;15.80;99.90;;;;;;4651884;30;20047;-86
2022/06/27 00:02:42;;;;;;;12.73;11.43;;;15.80;99.90;;;;;;4651724;30;20054;-86
2022/06/27 00:05:08;;;;;;;12.65;11.45;;;15.80;99.90;;;;;;4651928;30;20043;-86
2022/06/27 00:07:34;;;;;;;13.55;12.25;;;15.80;99.90;;;;;;4652233;30;20050;-88
2022/06/27 00:10:00;;;;;;;12.90;11.25;;;15.80;99.90;;;;;;4652142;30;20096;-86
2022/06/27 00:12:25;;;;;;;12.25;11.07;;;15.70;99.90;;;;;;4651502;30;20331;-86
2022/06/27 00:14:51;;;;;;;11.50;10.38;;;15.80;99.90;;;;;;4650900;30;20061;-86
2022/06/27 00:17:17;;;;;;;11.95;10.85;;;15.70;99.90;;;;;;4652028;30;20046;-86
2022/06/27 00:19:42;;;;;;;12.30;11.15;;;15.80;99.90;;;;;;4651723;30;20046;-87
2022/06/27 00:22:09;;;;;;;12.75;11.60;;;15.70;99.90;;;;;;4651300;30;20145;-86
2022/06/27 00:24:35;;;;;;;12.80;11.68;;;15.70;99.90;;;;;;4665883;30;20068;-87
2022/06/27 00:27:01;;;;;;;14.25;12.75;;;15.70;99.90;;;;;;4652146;30;20054;-88
2022/06/27 00:29:26;;;;;;;14.02;11.85;;;15.70;99.90;;;;;;4651156;30;20077;-86
2022/06/27 00:31:52;;;;;;;12.95;11.75;;;15.70;99.90;;;;;;4666393;30;20347;-86
2022/06/27 00:34:18;;;;;;;14.30;12.85;;;15.60;99.90;;;;;;4652116;30;20056;-86
2022/06/27 00:36:44;;;;;;;14.45;13.00;;;15.70;99.90;;;;;;4651106;30;20121;-86
2022/06/27 00:39:09;;;;;;;14.15;12.80;;;15.60;99.90;;;;;;4651858;30;20110;-85
2022/06/27 00:41:35;;;;;;;15.88;14.32;;;15.60;99.90;;;;;;4651736;30;20050;-86
2022/06/27 00:44:01;;;;;;;17.65;14.82;;;15.60;99.90;;;;;;4650351;30;20046;-86
2022/06/27 00:46:28;;;;;;;14.15;12.75;;;15.60;99.90;;;;;;4650063;30;20051;-86
2022/06/27 00:48:54;;;;;;;14.10;12.75;;;15.70;99.90;;;;;;4651551;30;20398;-86
2022/06/27 00:51:19;;;;;;;15.20;13.35;;;15.50;99.90;;;;;;4650583;30;20181;-86
2022/06/27 00:53:45;;;;;;;13.80;12.40;;;15.60;99.90;;;;;;4651173;30;20085;-86
2022/06/27 00:56:11;;;;;;;12.45;11.25;;;15.60;99.90;;;;;;4665654;30;20301;-86
2022/06/27 00:58:37;;;;;;;13.50;11.73;;;15.50;99.90;;;;;;4651599;30;20129;-86
2022/06/27 01:01:03;;;;;;;13.15;11.93;;;15.50;99.90;;;;;;4651434;30;20670;-86
2022/06/27 01:03:29;;;;;;;12.32;11.27;;;15.50;99.90;;;;;;4650638;30;20042;-86
2022/06/27 01:05:56;;;;;;;12.20;11.00;;;15.50;99.90;;;;;;4664808;30;20111;-86
2022/06/27 01:08:25;;;;;;;12.15;10.98;;;15.50;99.90;;;;;;4649875;30;20042;-87
2022/06/27 01:10:52;;;;;;;12.13;10.93;;;15.50;99.90;;;;;;4665494;30;20082;-86
2022/06/27 01:13:18;;;;;;;12.77;11.40;;;15.50;99.90;;;;;;4665603;30;20077;-85
2022/06/27 01:15:45;;;;;;;11.48;10.23;;;15.50;99.90;;;;;;4649819;30;20047;-86
2022/06/27 01:18:12;;;;;;;14.93;11.85;;;15.40;99.90;;;;;;4649496;30;20056;-86
2022/06/27 01:20:41;;;;;;;10.77;9.68;;;15.50;99.90;;;;;;4650777;30;20042;-86
2022/06/27 01:23:06;;;;;;;13.88;12.50;;;15.40;99.90;;;;;;4648063;30;20129;-87
2022/06/27 01:25:35;;;;;;;12.65;11.45;;;15.40;99.90;;;;;;4650334;30;20483;-85
2022/06/27 01:28:03;;;;;;;15.30;13.75;;;15.40;99.90;;;;;;4650927;30;20078;-86
2022/06/27 01:30:28;;;;;;;14.32;12.93;;;15.50;99.90;;;;;;4663700;30;20042;-86
2022/06/27 01:32:54;;;;;;;12.73;11.63;;;15.40;99.90;;;;;;4650296;30;20058;-86
2022/06/27 01:35:19;;;;;;;13.68;12.48;;;15.50;99.90;;;;;;4651615;30;20141;-84
2022/06/27 01:37:45;;;;;;;13.23;11.93;;;15.50;99.90;;;;;;4651284;30;20050;-85
2022/06/27 01:40:11;;;;;;;12.45;11.25;;;15.50;99.90;;;;;;4650520;30;20054;-85
2022/06/27 01:42:37;;;;;;;12.88;11.77;;;15.40;99.90;;;;;;4650145;30;20137;-85
2022/06/27 01:45:03;;;;;;;14.68;13.23;;;15.50;99.90;;;;;;4650548;30;20129;-85
2022/06/27 01:47:30;;;;;;;14.85;13.30;;;15.50;99.90;;;;;;4664984;30;20485;-85
2022/06/27 01:49:56;;;;;;;15.43;13.55;;;15.50;99.90;;;;;;4650405;30;20041;-85
2022/06/27 01:52:22;;;;;;;14.65;13.15;;;15.40;99.90;;;;;;4650811;30;20050;-86
2022/06/27 01:54:47;;;;;;;14.85;13.45;;;15.50;99.90;;;;;;4650129;30;20057;-85
2022/06/27 01:57:16;;;;;;;12.65;11.45;;;15.50;99.90;;;;;;4650456;30;20054;-85
2022/06/27 01:59:42;;;;;;;14.40;12.90;;;15.50;99.90;;;;;;4650667;30;20054;-85
2022/06/27 02:02:08;;;;;;;16.15;13.85;;;15.50;99.90;;;;;;4650159;30;20094;-84
2022/06/27 02:04:36;;;;;;;17.23;14.43;;;15.50;99.90;;;;;;4650496;30;20388;-85
2022/06/27 02:07:02;;;;;;;14.07;12.77;;;15.40;99.90;;;;;;4650172;30;20050;-85
2022/06/27 02:09:28;;;;;;;12.95;11.82;;;15.50;99.90;;;;;;4664678;30;20042;-85
2022/06/27 02:11:55;;;;;;;14.93;13.45;;;15.50;99.90;;;;;;4664944;30;20050;-86
2022/06/27 02:14:21;;;;;;;13.40;12.10;;;15.50;99.90;;;;;;4663961;30;20133;-85
2022/06/27 02:16:47;;;;;;;16.00;14.30;;;15.40;99.90;;;;;;4649981;30;20046;-85
2022/06/27 02:19:17;;;;;;;17.38;15.27;;;15.40;99.90;;;;;;4648771;30;20050;-85
2022/06/27 02:21:44;;;;;;;15.45;13.50;;;15.50;99.90;;;;;;4663938;30;20470;-85
2022/06/27 02:24:10;;;;;;;15.93;14.45;;;15.40;99.90;;;;;;4650383;30;20042;-85
2022/06/27 02:26:37;;;;;;;17.50;15.80;;;15.50;99.90;;;;;;4650168;30;20057;-86
2022/06/27 02:29:03;;;;;;;14.40;13.20;;;15.40;99.90;;;;;;4649292;30;20395;-86
2022/06/27 02:31:29;;;;;;;15.25;13.75;;;15.50;99.90;;;;;;4649604;30;20054;-85
2022/06/27 02:33:55;;;;;;;17.33;15.82;;;15.60;99.90;;;;;;4650749;30;20046;-85
2022/06/27 02:36:36;;;;;;;17.20;15.48;;;15.40;99.90;;;;;;4664593;30;20061;-85
2022/06/27 02:39:03;;;;;;;17.42;15.63;;;15.50;99.90;;;;;;4649359;30;20078;-85
2022/06/27 02:41:33;;;;;;;15.95;14.45;;;15.50;99.90;;;;;;4663670;30;20609;-85
2022/06/27 02:44:07;;;;;;;16.77;15.27;;;15.50;99.90;;;;;;4649169;30;20505;-85
2022/06/27 02:46:33;;;;;;;14.48;13.10;;;15.50;99.90;;;;;;4649954;30;20082;-85
2022/06/27 02:49:00;;;;;;;15.75;14.15;;;15.50;99.90;;;;;;4650046;30;20077;-85
2022/06/27 02:51:30;;;;;;;13.70;12.23;;;15.50;99.90;;;;;;4664239;30;20073;-85
2022/06/27 02:54:13;;;;;;;16.00;14.40;;;15.50;99.90;;;;;;4663202;30;20065;-85
2022/06/27 02:56:43;;;;;;;15.53;14.13;;;15.50;99.90;;;;;;4663792;30;20050;-85
2022/06/27 02:59:16;;;;;;;15.48;13.98;;;15.50;99.90;;;;;;4649307;30;20309;-85
2022/06/27 03:01:43;;;;;;;13.65;12.45;;;15.50;99.90;;;;;;4664129;30;20134;-85
2022/06/27 03:04:09;;;;;;;15.82;14.27;;;15.60;99.90;;;;;;4649934;30;20097;-85
2022/06/27 03:06:34;;;;;;;15.15;13.75;;;15.50;99.90;;;;;;4649972;30;20046;-85
2022/06/27 03:09:00;;;;;;;16.20;14.43;;;15.50;99.90;;;;;;4648452;30;20045;-85
2022/06/27 03:11:26;;;;;;;14.40;13.10;;;15.50;99.90;;;;;;4649246;30;20053;-85
2022/06/27 03:13:53;;;;;;;14.07;12.80;;;15.50;99.90;;;;;;4649182;30;20125;-85
2022/06/27 03:16:20;;;;;;;17.42;15.90;;;15.40;99.90;;;;;;4649658;30;20046;-85
2022/06/27 03:18:46;;;;;;;17.42;15.68;;;15.50;99.90;;;;;;4662886;30;20499;-85
2022/06/27 03:21:12;;;;;;;16.85;15.25;;;15.50;99.90;;;;;;4648808;30;20125;-85
2022/06/27 03:23:38;;;;;;;14.48;13.10;;;15.50;99.90;;;;;;4662982;30;20046;-85
2022/06/27 03:26:04;;;;;;;15.98;14.57;;;15.50;99.90;;;;;;4649366;30;20046;-85
2022/06/27 03:28:30;;;;;;;17.48;15.65;;;15.60;99.90;;;;;;4649221;30;20054;-85
2022/06/27 03:30:56;;;;;;;17.15;15.60;;;15.40;99.90;;;;;;4648180;30;20050;-85
2022/06/27 03:33:21;;;;;;;16.17;14.57;;;15.50;99.90;;;;;;4648093;30;20047;-85
2022/06/27 03:35:47;;;;;;;16.88;15.32;;;15.50;99.90;;;;;;4662782;30;20130;-85
2022/06/27 03:38:13;;;;;;;17.48;15.68;;;15.50;99.90;;;;;;4648492;30;20048;-85
2022/06/27 03:40:38;;;;;;;19.17;16.20;;;15.60;99.90;;;;;;4649478;30;20482;-84
2022/06/27 03:43:05;;;;;;;18.65;16.55;;;15.50;99.90;;;;;;4649293;30;20470;-86
2022/06/27 03:45:30;;;;;;;16.65;15.02;;;15.50;99.90;;;;;;4648170;30;20101;-86
2022/06/27 03:47:58;;;;;;;16.50;15.00;;;15.50;99.90;;;;;;4648843;30;20042;-86
2022/06/27 03:50:25;;;;;;;15.60;14.27;;;15.60;99.90;;;;;;4649218;30;20134;-85
2022/06/27 03:52:52;;;;;;;15.77;14.35;;;15.60;99.90;;;;;;4648851;30;20519;-86
2022/06/27 03:55:18;;;;;;;16.25;14.65;;;15.50;99.90;;;;;;4662282;30;20082;-85
2022/06/27 03:57:55;;;;;;;18.67;14.88;;;15.50;99.90;;;;;;4663026;30;20099;-86
2022/06/27 04:00:26;;;;;;;15.93;14.13;;;15.50;99.90;;;;;;4648504;30;20061;-85
2022/06/27 04:02:52;;;;;;;16.30;14.55;;;15.60;99.90;;;;;;4648939;30;20047;-85
2022/06/27 04:05:18;;;;;;;15.75;14.23;;;15.60;99.90;;;;;;4663267;30;20047;-85
2022/06/27 04:07:44;;;;;;;16.13;14.63;;;15.60;99.90;;;;;;4647837;30;20071;-85
2022/06/27 04:10:11;;;;;;;17.48;15.88;;;15.60;99.90;;;;;;4662934;30;20050;-85
2022/06/27 04:12:38;;;;;;;16.05;14.45;;;15.60;99.90;;;;;;4663225;30;20522;-85
2022/06/27 04:15:05;;;;;;;16.45;14.48;;;15.60;99.90;;;;;;4649299;30;20137;-85
2022/06/27 04:17:30;;;;;;;18.42;16.50;;;15.60;99.90;;;;;;4648440;30;20046;-85
2022/06/27 04:19:56;;;;;;;17.88;16.13;;;15.50;99.90;;;;;;4660344;30;20113;-85
2022/06/27 04:22:22;;;;;;;15.55;13.95;;;15.60;99.90;;;;;;4649047;30;20050;-86
2022/06/27 04:24:48;;;;;;;14.73;13.23;;;15.50;99.90;;;;;;4652003;30;20535;-85
2022/06/27 04:27:17;;;;;;;14.57;13.18;;;15.60;99.90;;;;;;4652205;30;20042;-85
2022/06/27 04:29:43;;;;;;;13.48;12.18;;;15.60;99.90;;;;;;4652146;30;20468;-86
2022/06/27 04:32:09;;;;;;;13.75;12.40;;;15.60;99.90;;;;;;4650945;30;20373;-85
2022/06/27 04:34:36;;;;;;;13.98;12.48;;;15.60;99.90;;;;;;4650378;30;20047;-85
2022/06/27 04:37:03;;;;;;;13.13;11.90;;;15.60;99.90;;;;;;4651860;30;20089;-85
2022/06/27 04:39:29;;;;;;;13.63;12.23;;;15.70;99.90;;;;;;4651732;30;20085;-86
2022/06/27 04:41:55;;;;;;;15.23;12.13;;;15.60;99.90;;;;;;4665370;30;20054;-86
2022/06/27 04:44:21;;;;;;;15.85;14.27;;;15.70;99.90;;;;;;4651583;30;20047;-85
2022/06/27 04:46:49;;;;;;;15.88;14.35;;;15.70;99.90;;;;;;4650971;30;20181;-85
2022/06/27 04:49:16;;;;;;;15.93;14.27;;;15.70;99.90;;;;;;4650139;30;20585;-85
2022/06/27 04:51:43;;;;;;;15.93;14.32;;;15.80;99.90;;;;;;4665178;30;20061;-85
2022/06/27 04:54:10;;;;;;;17.10;15.32;;;15.80;99.90;;;;;;4651388;30;20108;-85
2022/06/27 04:56:41;;;;;;;17.05;15.35;;;15.80;99.90;;;;;;4651579;30;20185;-86
2022/06/27 04:59:06;;;;;;;17.63;16.02;;;15.90;99.90;;;;;;4664787;30;20061;-85
2022/06/27 05:01:32;;;;;;;16.80;15.23;;;15.80;99.90;;;;;;4650752;30;20046;-85
2022/06/27 05:03:58;;;;;;;16.83;15.23;;;15.80;99.90;;;;;;4650585;30;20042;-85
2022/06/27 05:06:24;;;;;;;16.55;15.05;;;15.90;99.90;;;;;;4651241;30;20056;-85
2022/06/27 05:08:49;;;;;;;18.38;16.48;;;15.90;99.90;;;;;;4650549;30;20046;-85
2022/06/27 05:11:15;;;;;;;17.13;15.45;;;16.00;99.90;;;;;;4651439;30;20385;-84
2022/06/27 05:13:41;;;;;;;17.38;15.60;;;16.00;99.90;;;;;;4650722;30;20570;-85
2022/06/27 05:16:06;;;;;;;16.50;14.88;;;15.90;99.90;;;;;;4649889;30;20137;-84
2022/06/27 05:18:32;;;;;;;16.42;14.98;;;15.90;99.90;;;;;;4651010;30;20061;-84
2022/06/27 05:20:58;;;;;;;15.95;14.55;;;16.00;99.90;;;;;;4664109;30;20105;-83
2022/06/27 05:23:24;;;;;;;16.58;15.07;;;16.00;99.90;;;;;;4650563;30;20423;-82
2022/06/27 05:25:50;;;;;;;17.65;15.85;;;16.10;99.90;;;;;;4663709;30;20042;-85
2022/06/27 05:28:15;;;;;;;15.07;13.75;;;16.20;99.90;;;;;;4648683;30;20042;-82
2022/06/27 05:30:41;;;;;;;14.55;13.18;;;16.20;99.90;;;;;;4664747;30;20050;-83
2022/06/27 05:33:07;;;;;;;14.82;13.27;;;16.30;99.90;;;;;;4649734;30;20054;-86
2022/06/27 05:35:32;;;;;;;14.07;12.77;;;16.30;99.90;;;;;;4649990;30;20514;-85
2022/06/27 05:37:59;;;;;;;13.82;12.52;;;16.40;99.90;;;;;;4649767;30;20052;-84
2022/06/27 05:40:25;;;;;;;14.18;12.93;;;16.40;99.90;;;;;;4648781;30;20050;-85
2022/06/27 05:42:53;;;;;;;14.20;12.90;;;16.50;99.90;;;;;;4649926;30;20511;-85
2022/06/27 05:45:20;;;;;;;14.15;12.80;;;16.60;99.90;;;;;;4650240;30;20051;-84
2022/06/27 05:47:46;;;;;;;12.95;11.75;;;16.60;99.90;;;;;;4649675;30;20068;-84
2022/06/27 05:50:13;;;;;;;12.07;10.88;;;16.60;99.90;;;;;;4650049;30;20200;-85
2022/06/27 05:52:39;;;;;;;10.02;9.13;;;16.60;99.90;;;;;;4650617;30;20064;-85
2022/06/27 05:55:06;;;;;;;11.25;9.77;;;16.60;99.90;;;;;;4663140;30;20054;-86
2022/06/27 05:57:31;;;;;;;10.13;9.20;;;16.70;99.90;;;;;;4649690;30;20584;-84
2022/06/27 05:59:58;;;;;;;9.52;8.63;;;16.70;99.90;;;;;;4662998;30;20129;-84
2022/06/27 06:02:25;;;;;;;9.52;8.52;;;16.70;99.90;;;;;;4649769;30;20090;-84
2022/06/27 06:04:51;;;;;;;9.85;8.07;;;16.70;99.90;;;;;;4663806;30;20507;-86
2022/06/27 06:07:17;;;;;;;9.35;8.45;;;16.70;99.90;;;;;;4658461;30;20042;-83
2022/06/27 06:09:43;;;;;;;9.05;7.60;;;16.70;99.90;;;;;;4662927;30;20082;-82
2022/06/27 06:12:11;;;;;;;8.57;7.63;;;16.70;99.90;;;;;;4663639;30;20065;-83
2022/06/27 06:14:37;;;;;;;7.70;7.00;;;16.60;99.90;;;;;;4664233;30;20511;-82
2022/06/27 06:17:03;;;;;;;7.65;6.85;;;16.70;99.90;;;;;;4647558;30;20046;-82
2022/06/27 06:19:29;;;;;;;8.07;7.18;;;16.60;99.90;;;;;;4649531;30;20444;-82
2022/06/27 06:21:55;;;;;;;7.15;6.45;;;16.60;99.90;;;;;;4648606;30;20113;-85
2022/06/27 06:24:21;;;;;;;6.45;5.85;;;16.60;99.90;;;;;;4649394;30;20042;-85
2022/06/27 06:26:52;;;;;;;6.95;6.20;;;16.60;99.90;;;;;;4647391;30;20050;-84
2022/06/27 06:29:18;;;;;;;6.57;5.97;;;16.60;99.90;;;;;;4673149;30;20484;-84
2022/06/27 06:31:45;;;;;;;6.30;5.70;;;16.50;99.90;;;;;;4650078;30;20057;-84
2022/06/27 06:34:12;;;;;;;6.60;6.00;;;16.60;99.90;;;;;;4649777;30;20059;-84
2022/06/27 06:36:39;;;;;;;6.07;5.57;;;16.60;99.90;;;;;;4649856;30;20503;-84
2022/06/27 06:39:06;;;;;;;7.00;5.78;;;16.50;99.90;;;;;;4649813;30;20050;-84
2022/06/27 06:41:32;;;;;;;7.05;6.35;;;16.60;99.90;;;;;;4650050;30;20082;-84
2022/06/27 06:43:59;;;;;;;5.65;5.13;;;16.60;99.90;;;;;;4664082;30;20053;-84
2022/06/27 06:46:26;;;;;;;5.78;5.28;;;16.50;99.90;;;;;;4663340;30;20054;-84
2022/06/27 06:48:57;;;;;;;6.60;5.70;;;16.60;99.90;;;;;;4649705;30;20078;-84
2022/06/27 06:51:24;;;;;;;7.03;6.32;;;16.60;99.90;;;;;;4650077;30;20042;-83
2022/06/27 06:53:50;;;;;;;6.45;5.85;;;16.60;99.90;;;;;;4649611;30;20081;-84
2022/06/27 06:56:16;;;;;;;6.93;6.32;;;16.70;99.90;;;;;;4663821;30;20109;-84
2022/06/27 06:58:42;;;;;;;8.05;6.90;;;16.80;99.90;;;;;;4663560;30;20054;-84
2022/06/27 07:01:08;;;;;;;7.28;6.57;;;16.80;99.90;;;;;;4649518;30;20053;-84
2022/06/27 07:03:34;;;;;;;7.57;6.88;;;17.00;99.90;;;;;;4649604;30;20137;-84
2022/06/27 07:06:00;;;;;;;8.13;7.32;;;16.90;99.90;;;;;;4649548;30;20550;-84
2022/06/27 07:08:26;;;;;;;9.38;7.70;;;17.00;99.90;;;;;;4649259;30;20043;-84
2022/06/27 07:10:52;;;;;;;8.70;8.00;;;17.10;99.90;;;;;;4649558;30;20109;-84
2022/06/27 07:13:18;;;;;;;7.78;6.88;;;17.10;99.90;;;;;;4649487;30;20088;-84
2022/06/27 07:15:45;;;;;;;8.77;7.90;;;17.20;99.90;;;;;;4649425;30;20046;-84
2022/06/27 07:18:12;;;;;;;8.65;7.82;;;17.20;99.90;;;;;;4663331;30;20083;-84
2022/06/27 07:20:37;;;;;;;8.32;7.55;;;17.30;99.90;;;;;;4649433;30;20050;-84
2022/06/27 07:23:04;;;;;;;9.40;8.07;;;17.30;99.90;;;;;;4663321;30;20077;-83
2022/06/27 07:25:31;;;;;;;9.15;8.25;;;17.30;99.90;;;;;;4663323;30;20063;-84
2022/06/27 07:27:59;;;;;;;9.18;7.78;;;17.30;99.90;;;;;;4649018;30;20058;-83
2022/06/27 07:30:25;;;;;;;8.50;7.65;;;17.30;99.90;;;;;;4649381;30;20047;-84
2022/06/27 07:32:51;;;;;;;8.93;8.13;;;17.30;99.90;;;;;;4649237;30;20057;-84
2022/06/27 07:35:17;;;;;;;8.93;8.00;;;17.30;99.90;;;;;;4650000;30;20140;-83
2022/06/27 07:37:48;;;;;;;8.70;7.90;;;17.30;99.90;;;;;;4649691;30;20050;-83
2022/06/27 07:40:19;;;;;;;6.07;5.55;;;17.40;99.90;;;;;;4650141;30;20042;-83
2022/06/27 07:42:46;;;;;;;6.65;5.93;;;17.40;99.90;;;;;;4664265;30;20078;-83
2022/06/27 07:45:14;;;;;;;6.25;5.65;;;17.40;99.90;;;;;;4649940;30;20050;-83
2022/06/27 07:47:41;;;;;;;7.38;6.68;;;17.40;99.90;;;;;;4649918;30;20046;-83
2022/06/27 07:50:07;;;;;;;6.50;5.85;;;17.50;99.90;;;;;;4649835;30;20521;-83
2022/06/27 07:53:11;;;;;;;6.78;6.13;;;17.60;99.90;;;;;;4649968;30;20057;-83
2022/06/27 07:55:19;;;;;;;5.95;5.43;;;17.70;99.90;;;;;;4663282;30;20511;-83
2022/06/27 07:57:47;;;;;;;7.05;6.35;;;17.70;99.90;;;;;;4666549;30;20499;-83
2022/06/27 08:00:14;;;;;;;7.10;6.40;;;17.70;99.90;;;;;;4667487;30;20054;-83
2022/06/27 08:02:40;;;;;;;6.22;5.63;;;17.80;99.90;;;;;;4652871;30;20430;-83
2022/06/27 08:05:07;;;;;;;6.63;5.97;;;17.90;99.90;;;;;;4653471;30;20050;-83
2022/06/27 08:07:33;;;;;;;7.80;6.10;;;18.00;99.90;;;;;;4652928;30;20074;-83
2022/06/27 08:09:58;;;;;;;6.70;6.10;;;18.20;99.90;;;;;;4652694;30;20095;-83
2022/06/27 08:12:26;;;;;;;7.43;5.85;;;18.30;99.90;;;;;;4652799;30;20082;-83
2022/06/27 08:14:52;;;;;;;7.60;6.72;;;18.50;99.90;;;;;;4652677;30;20081;-83
2022/06/27 08:17:18;;;;;;;7.97;6.95;;;18.50;99.90;;;;;;4652780;30;20088;-83
2022/06/27 08:19:44;;;;;;;7.53;6.82;;;18.50;99.90;;;;;;4652887;30;20043;-83
2022/06/27 08:22:11;;;;;;;7.80;7.00;;;18.50;99.90;;;;;;4653123;30;20054;-83
2022/06/27 08:24:37;;;;;;;7.93;7.22;;;18.40;99.90;;;;;;4653170;30;20129;-83
2022/06/27 08:27:04;;;;;;;8.40;7.55;;;18.50;99.90;;;;;;4652986;30;20046;-83
2022/06/27 08:29:32;;;;;;;6.25;5.38;;;18.50;99.90;;;;;;4652888;30;20043;-83
2022/06/27 08:31:58;;;;;;;6.50;5.68;;;18.40;99.90;;;;;;4653020;30;20108;-83
2022/06/27 08:34:23;;;;;;;5.32;4.60;;;18.50;99.90;;;;;;4652665;30;20136;-83
2022/06/27 08:36:50;;;;;;;5.35;4.85;;;18.40;99.90;;;;;;4652682;30;20141;-83
2022/06/27 08:39:16;;;;;;;5.60;4.97;;;18.40;99.90;;;;;;4652538;30;20114;-83
2022/06/27 08:41:44;;;;;;;6.40;5.30;;;18.50;99.90;;;;;;4652752;30;20054;-83
2022/06/27 08:44:10;;;;;;;5.90;5.30;;;18.60;99.90;;;;;;4652536;30;20121;-83
2022/06/27 08:46:36;;;;;;;5.65;4.97;;;18.70;99.90;;;;;;4666674;30;20046;-83
2022/06/27 08:49:04;;;;;;;5.47;4.97;;;18.80;99.90;;;;;;4652229;30;20184;-83
2022/06/27 08:51:32;;;;;;;5.50;5.00;;;19.00;99.90;;;;;;4652519;30;20455;-83
2022/06/27 08:53:58;;;;;;;5.22;4.45;;;19.10;99.90;;;;;;4666249;30;20339;-83
2022/06/27 08:56:24;;;;;;;4.68;4.10;;;19.40;99.90;;;;;;4666930;30;20058;-83
2022/06/27 08:58:50;;;;;;;5.00;4.57;;;19.60;99.90;;;;;;4652455;30;20077;-83
2022/06/27 09:01:25;;;;;;;5.03;4.30;;;19.80;99.90;;;;;;4666286;30;20085;-83
2022/06/27 09:04:06;;;;;;;5.22;4.57;;;20.00;99.90;;;;;;4666319;30;20120;-83
2022/06/27 09:06:55;;;;;;;5.88;4.00;;;20.00;99.90;;;;;;4652141;30;20054;-83
2022/06/27 09:09:24;;;;;;;4.85;4.43;;;20.00;99.90;;;;;;4665202;30;20046;-83
2022/06/27 09:11:50;;;;;;;4.63;4.22;;;19.80;99.90;;;;;;4652309;30;20046;-83
2022/06/27 09:14:39;;;;;;;6.20;4.20;;;19.70;99.90;;;;;;4651901;30;20552;-83
2022/06/27 09:17:13;;;;;;;4.60;4.15;;;19.60;99.90;;;;;;4652091;30;20090;-83
2022/06/27 09:19:51;;;;;;;4.53;4.07;;;19.50;99.90;;;;;;4665695;30;20061;-83
2022/06/27 09:22:19;;;;;;;5.03;3.47;;;19.50;99.90;;;;;;4651753;30;20057;-83
2022/06/27 09:25:09;;;;;;;4.15;3.75;;;19.40;99.90;;;;;;4651595;30;20077;-82
2022/06/27 09:27:47;;;;;;;4.28;3.60;;;19.40;99.90;;;;;;4666059;30;20085;-83
2022/06/27 09:30:22;;;;;;;4.40;4.00;;;19.40;99.90;;;;;;4651679;30;20086;-83
2022/06/27 09:32:54;;;;;;;5.60;4.47;;;19.50;99.90;;;;;;4651776;30;20051;-83
2022/06/27 09:35:25;;;;;;;4.80;4.30;;;19.50;99.90;;;;;;4651834;30;20054;-83
2022/06/27 09:37:55;;;;;;;4.43;3.78;;;19.60;99.90;;;;;;4665557;30;20538;-83
2022/06/27 09:40:27;;;;;;;4.70;4.30;;;19.70;99.90;;;;;;4651952;30;20104;-83
2022/06/27 09:42:55;;;;;;;5.85;4.50;;;19.70;99.90;;;;;;4666053;30;20465;-83
2022/06/27 09:45:25;;;;;;;4.70;3.90;;;19.80;99.90;;;;;;4651434;30;20521;-83
2022/06/27 09:48:03;;;;;;;4.63;4.22;;;19.90;99.90;;;;;;4651422;30;20050;-83
2022/06/27 09:50:33;;;;;;;4.70;4.30;;;20.00;99.90;;;;;;4651493;30;20069;-83
2022/06/27 09:53:00;;;;;;;4.70;4.22;;;20.00;99.90;;;;;;4651510;30;20133;-83
2022/06/27 09:55:26;;;;;;;4.82;4.43;;;20.10;99.90;;;;;;4665462;30;20054;-83
2022/06/27 09:57:53;;;;;;;4.90;4.50;;;20.00;99.90;;;;;;4665673;30;20454;-83
2022/06/27 10:00:21;;;;;;;5.55;4.65;;;20.10;99.90;;;;;;4651395;30;20517;-83
2022/06/27 10:02:48;;;;;;;5.10;4.60;;;20.00;99.90;;;;;;4651544;30;20065;-83
2022/06/27 10:05:16;;;;;;;4.75;4.32;;;20.00;99.90;;;;;;4651266;30;20043;-83
2022/06/27 10:07:55;;;;;;;5.80;5.25;;;20.00;99.90;;;;;;4651299;30;20057;-83
2022/06/27 10:10:21;;;;;;;4.97;4.57;;;20.00;99.90;;;;;;4651260;30;20050;-83
2022/06/27 10:13:04;;;;;;;5.18;4.68;;;19.80;99.90;;;;;;4651635;30;20085;-83
2022/06/27 10:15:33;;;;;;;;;;;19.80;99.90;;;;;;4651703;30;20058;-83
2022/06/27 10:18:02;;;;;;;5.35;4.95;;;19.70;99.90;;;;;;4650906;30;19971;-83
2022/06/27 10:20:38;;;;;;;5.88;4.82;;;19.60;99.90;;;;;;4664475;30;20211;-83
2022/06/27 10:23:03;;;;;;;5.30;4.80;;;19.60;99.90;;;;;;4650875;30;20042;-83
2022/06/27 10:25:29;;;;;;;5.45;4.95;;;19.70;99.90;;;;;;4651062;30;20098;-83
2022/06/27 10:28:10;;;;;;;5.22;4.63;;;19.60;99.90;;;;;;4650715;30;20054;-83
2022/06/27 10:30:51;;;;;;;4.78;4.28;;;19.70;99.90;;;;;;4651128;30;20487;-82
2022/06/27 10:33:23;;;;;;;6.07;3.95;;;19.70;99.90;;;;;;4665128;30;20046;-83
2022/06/27 10:35:57;;;;;;;4.80;4.30;;;19.70;99.90;;;;;;4651308;30;20511;-83
2022/06/27 10:38:27;;;;;;;4.57;4.13;;;19.70;99.90;;;;;;4665306;30;20050;-83
2022/06/27 10:40:55;;;;;;;5.50;4.85;;;19.70;99.90;;;;;;4665284;30;20060;-83
2022/06/27 10:43:39;;;;;;;5.50;5.00;;;19.70;99.90;;;;;;4650847;30;20059;-83
2022/06/27 10:46:10;;;;;;;6.10;5.30;;;19.70;99.90;;;;;;4650891;30;20523;-83
2022/06/27 10:48:49;;;;;;;6.68;5.68;;;19.70;99.90;;;;;;4650690;30;20057;-83
2022/06/27 10:51:21;;;;;;;5.80;5.20;;;19.70;99.90;;;;;;4651117;30;20126;-83
2022/06/27 10:53:49;;;;;;;5.75;5.15;;;19.70;99.90;;;;;;4650694;30;20043;-83
2022/06/27 10:56:36;;;;;;;5.53;4.72;;;19.80;99.90;;;;;;4650740;30;20093;-82
2022/06/27 10:59:14;;;;;;;6.28;4.63;;;19.80;99.90;;;;;;4664690;30;20071;-83
2022/06/27 11:02:02;;;;;;;5.57;4.63;;;19.80;99.90;;;;;;4650478;30;20047;-83
2022/06/27 11:04:35;;;;;;;6.22;5.70;;;20.10;99.90;;;;;;4650412;30;20043;-83
2022/06/27 11:07:09;;;;;;;6.13;5.53;;;20.30;99.90;;;;;;4664737;30;20050;-83
2022/06/27 11:09:37;;;;;;;6.53;5.45;;;20.40;99.90;;;;;;4650343;30;20565;-83
2022/06/27 11:12:05;;;;;;;6.32;5.72;;;20.50;99.90;;;;;;4650896;30;20463;-83
2022/06/27 11:14:31;;;;;;;6.82;6.10;;;20.50;99.90;;;;;;4650750;30;20046;-83
2022/06/27 11:16:56;;;;;;;7.50;5.50;;;20.60;99.90;;;;;;4650410;30;20049;-83
2022/06/27 11:22:20;;;;;;;6.55;5.28;;;20.90;99.90;;;;;;4664477;30;20061;-82
2022/06/27 11:24:47;;;;;;;7.30;6.43;;;21.00;99.90;;;;;;4664111;30;20112;-82
2022/06/27 11:27:15;;;;;;;6.68;5.97;;;21.10;99.90;;;;;;4664615;30;20105;-82
2022/06/27 11:32:27;;;;;;;8.07;7.25;;;21.30;99.90;;;;;;4664146;30;20062;-83
2022/06/27 11:34:53;;;;;;;7.85;6.68;;;21.40;99.90;;;;;;4649616;30;20153;-83
2022/06/27 11:37:22;;;;;;;7.20;6.50;;;21.60;99.90;;;;;;4664347;30;20065;-83
2022/06/27 11:40:05;;;;;;;6.68;6.00;;;21.70;99.90;;;;;;4664241;30;20491;-83
2022/06/27 11:42:33;;;;;;;6.97;6.32;;;21.70;99.90;;;;;;4649755;30;20438;-83
2022/06/27 11:45:07;;;;;;;7.43;6.70;;;21.60;99.90;;;;;;4664330;30;20038;-83
2022/06/27 11:47:35;;;;;;;7.00;6.25;;;21.50;99.90;;;;;;4650654;30;20402;-82
2022/06/27 11:50:06;;;;;;;6.70;6.03;;;21.30;99.90;;;;;;4664361;30;20057;-82
2022/06/27 11:52:44;;;;;;;8.25;6.63;;;21.30;99.90;;;;;;4664548;30;20411;-82
2022/06/27 11:55:12;;;;;;;6.70;6.05;;;21.30;99.90;;;;;;4664373;30;20058;-82
2022/06/27 11:57:54;;;;;;;7.72;6.60;;;21.40;99.90;;;;;;4650381;30;20518;-83
2022/06/27 12:00:32;;;;;;;6.70;6.05;;;21.50;99.90;;;;;;4649997;30;20050;-83
2022/06/27 12:03:06;;;;;;;6.35;5.75;;;21.60;99.90;;;;;;4663969;30;20097;-83
2022/06/27 12:05:39;;;;;;;8.18;6.72;;;21.90;99.90;;;;;;4663840;30;20050;-83
2022/06/27 12:08:15;;;;;;;7.47;6.78;;;22.20;99.90;;;;;;4661881;30;20053;-83
2022/06/27 12:13:38;;;;;;;6.95;6.25;;;22.50;99.90;;;;;;4664563;30;20434;-83
2022/06/27 12:16:06;;;;;;;7.22;6.50;;;22.70;99.90;;;;;;4650070;30;20057;-83
2022/06/27 12:18:37;;;;;;;7.00;6.18;;;22.80;99.90;;;;;;4664476;30;20054;-83
2022/06/27 12:21:04;;;;;;;7.45;5.72;;;23.10;99.90;;;;;;4649897;30;20149;-83
2022/06/27 12:23:30;;;;;;;6.45;5.85;;;23.10;99.90;;;;;;4649984;30;20050;-83
2022/06/27 12:25:56;;;;;;;6.50;5.80;;;23.10;99.90;;;;;;4664188;30;20043;-82
2022/06/27 12:28:23;;;;;;;9.38;6.00;;;23.10;99.90;;;;;;4650029;30;20488;-83
2022/06/27 12:30:49;;;;;;;7.53;5.93;;;22.90;99.90;;;;;;4663905;30;20518;-83
2022/06/27 12:33:15;;;;;;;7.13;6.43;;;22.80;99.90;;;;;;4650058;30;20056;-83
2022/06/27 12:35:41;;;;;;;7.80;7.00;;;22.70;99.90;;;;;;4649169;30;20598;-83
2022/06/27 12:38:07;;;;;;;7.20;6.50;;;22.50;99.90;;;;;;4649687;30;20144;-83
2022/06/27 12:40:33;;;;;;;8.32;7.47;;;22.40;99.90;;;;;;4663569;30;20081;-83
2022/06/27 12:42:59;;;;;;;7.60;6.80;;;22.30;99.90;;;;;;4650151;30;20054;-83
2022/06/27 12:45:25;;;;;;;8.32;6.45;;;22.10;99.90;;;;;;4667019;30;20130;-82
2022/06/27 12:47:51;;;;;;;7.88;7.10;;;22.00;99.90;;;;;;4652625;30;20038;-83
2022/06/27 12:50:16;;;;;;;8.65;6.72;;;21.90;99.90;;;;;;4652590;30;20106;-83